Terminal Aerodrome Forecast
Issued by NWS Austin/San Antonio, TX

Home | Current Version | Previous Version | Text Only | Print | Product List | Glossary On
Versions: 1 2 3 4 5 6 7 8 9 10 11 12 13 14 15 16 17 18 19 20 21 22 23 24 25 26 27 28 29 30 31
090
FTUS44 KEWX 181326 AAA
TAFDRT
TAF AMD
KDRT 181326Z 1813/1912 00000KT 6SM BR OVC005
     FM181500 30008KT P6SM BKN008
     FM181600 33020G30KT P6SM SCT150
     FM190000 34011KT P6SM SCT150
     FM190300 35004KT P6SM SCT150=

USA.gov is the U.S. government's official web portal to all federal, state and local government web resources and services.